sensor_id;sensor_type;location;lat;lon;timestamp;P1;durP1;ratioP1;P2;durP2;ratioP2
31282;SDS011;17915;52.540;13.604;2023-08-20T00:01:57;23.27;;;21.02;;
31282;SDS011;17915;52.540;13.604;2023-08-20T00:04:24;24.35;;;22.10;;
31282;SDS011;17915;52.540;13.604;2023-08-20T00:06:50;24.67;;;21.80;;
31282;SDS011;17915;52.540;13.604;2023-08-20T00:09:16;23.80;;;21.70;;
31282;SDS011;17915;52.540;13.604;2023-08-20T00:11:42;24.58;;;21.85;;
31282;SDS011;17915;52.540;13.604;2023-08-20T00:14:07;23.00;;;20.97;;
31282;SDS011;17915;52.540;13.604;2023-08-20T00:16:32;24.53;;;22.07;;
31282;SDS011;17915;52.540;13.604;2023-08-20T00:18:58;24.48;;;22.05;;
31282;SDS011;17915;52.540;13.604;2023-08-20T00:21:24;24.15;;;21.20;;
31282;SDS011;17915;52.540;13.604;2023-08-20T00:23:50;26.48;;;23.73;;
31282;SDS011;17915;52.540;13.604;2023-08-20T00:26:15;25.10;;;22.52;;
31282;SDS011;17915;52.540;13.604;2023-08-20T00:28:41;28.10;;;25.05;;
31282;SDS011;17915;52.540;13.604;2023-08-20T00:31:06;27.03;;;24.20;;
31282;SDS011;17915;52.540;13.604;2023-08-20T00:33:32;28.02;;;25.33;;
31282;SDS011;17915;52.540;13.604;2023-08-20T00:35:57;26.67;;;24.17;;
31282;SDS011;17915;52.540;13.604;2023-08-20T00:38:23;25.87;;;23.27;;
31282;SDS011;17915;52.540;13.604;2023-08-20T00:40:48;26.52;;;23.98;;
31282;SDS011;17915;52.540;13.604;2023-08-20T00:43:13;26.90;;;24.17;;
31282;SDS011;17915;52.540;13.604;2023-08-20T00:45:40;26.20;;;23.67;;
31282;SDS011;17915;52.540;13.604;2023-08-20T00:48:06;27.30;;;23.92;;
31282;SDS011;17915;52.540;13.604;2023-08-20T00:50:31;31.65;;;23.80;;
31282;SDS011;17915;52.540;13.604;2023-08-20T00:52:57;29.17;;;24.67;;
31282;SDS011;17915;52.540;13.604;2023-08-20T00:55:23;27.55;;;24.73;;
31282;SDS011;17915;52.540;13.604;2023-08-20T00:57:48;28.53;;;25.73;;
31282;SDS011;17915;52.540;13.604;2023-08-20T01:00:14;30.00;;;24.20;;
31282;SDS011;17915;52.540;13.604;2023-08-20T01:02:40;27.63;;;25.13;;
31282;SDS011;17915;52.540;13.604;2023-08-20T01:05:06;26.43;;;23.90;;
31282;SDS011;17915;52.540;13.604;2023-08-20T01:07:38;27.00;;;24.27;;
31282;SDS011;17915;52.540;13.604;2023-08-20T01:13:05;28.48;;;25.42;;
31282;SDS011;17915;52.540;13.604;2023-08-20T01:15:31;26.95;;;24.45;;
31282;SDS011;17915;52.540;13.604;2023-08-20T01:17:56;28.23;;;25.50;;
31282;SDS011;17915;52.540;13.604;2023-08-20T01:20:22;27.67;;;24.90;;
31282;SDS011;17915;52.540;13.604;2023-08-20T01:25:18;29.13;;;26.30;;
31282;SDS011;17915;52.540;13.604;2023-08-20T01:30:58;29.40;;;26.40;;
31282;SDS011;17915;52.540;13.604;2023-08-20T01:33:24;28.15;;;25.38;;
31282;SDS011;17915;52.540;13.604;2023-08-20T01:35:50;29.17;;;26.27;;
31282;SDS011;17915;52.540;13.604;2023-08-20T01:38:16;33.38;;;25.58;;
31282;SDS011;17915;52.540;13.604;2023-08-20T01:40:42;30.53;;;27.37;;
31282;SDS011;17915;52.540;13.604;2023-08-20T01:43:07;34.07;;;29.60;;
31282;SDS011;17915;52.540;13.604;2023-08-20T01:45:32;27.93;;;25.33;;
31282;SDS011;17915;52.540;13.604;2023-08-20T01:47:58;28.40;;;25.63;;
31282;SDS011;17915;52.540;13.604;2023-08-20T01:50:23;28.70;;;25.63;;
31282;SDS011;17915;52.540;13.604;2023-08-20T01:52:49;27.97;;;25.33;;
31282;SDS011;17915;52.540;13.604;2023-08-20T01:55:14;27.17;;;24.57;;
31282;SDS011;17915;52.540;13.604;2023-08-20T01:57:39;26.27;;;23.60;;
31282;SDS011;17915;52.540;13.604;2023-08-20T02:00:05;26.23;;;23.50;;
31282;SDS011;17915;52.540;13.604;2023-08-20T02:02:31;26.10;;;23.63;;
31282;SDS011;17915;52.540;13.604;2023-08-20T02:04:57;26.45;;;23.75;;
31282;SDS011;17915;52.540;13.604;2023-08-20T02:07:23;26.10;;;23.50;;
31282;SDS011;17915;52.540;13.604;2023-08-20T02:09:48;26.47;;;23.87;;
31282;SDS011;17915;52.540;13.604;2023-08-20T02:12:14;28.57;;;25.50;;
31282;SDS011;17915;52.540;13.604;2023-08-20T02:14:39;29.27;;;23.58;;
31282;SDS011;17915;52.540;13.604;2023-08-20T02:17:05;27.85;;;23.90;;
31282;SDS011;17915;52.540;13.604;2023-08-20T02:19:31;26.23;;;23.65;;
31282;SDS011;17915;52.540;13.604;2023-08-20T02:21:57;26.80;;;23.50;;
31282;SDS011;17915;52.540;13.604;2023-08-20T02:24:22;26.43;;;23.93;;
31282;SDS011;17915;52.540;13.604;2023-08-20T02:26:47;25.50;;;23.13;;
31282;SDS011;17915;52.540;13.604;2023-08-20T02:29:13;25.33;;;22.77;;
31282;SDS011;17915;52.540;13.604;2023-08-20T02:31:38;24.97;;;22.37;;
31282;SDS011;17915;52.540;13.604;2023-08-20T02:34:03;28.20;;;24.40;;
31282;SDS011;17915;52.540;13.604;2023-08-20T02:36:29;27.03;;;24.13;;
31282;SDS011;17915;52.540;13.604;2023-08-20T02:38:54;33.83;;;23.17;;
31282;SDS011;17915;52.540;13.604;2023-08-20T02:41:20;27.73;;;24.33;;
31282;SDS011;17915;52.540;13.604;2023-08-20T02:43:45;29.43;;;23.53;;
31282;SDS011;17915;52.540;13.604;2023-08-20T02:46:10;26.30;;;23.70;;
31282;SDS011;17915;52.540;13.604;2023-08-20T02:48:36;27.27;;;24.37;;
31282;SDS011;17915;52.540;13.604;2023-08-20T02:51:01;27.63;;;24.73;;
31282;SDS011;17915;52.540;13.604;2023-08-20T02:53:27;30.20;;;24.13;;
31282;SDS011;17915;52.540;13.604;2023-08-20T02:55:53;28.57;;;24.73;;
31282;SDS011;17915;52.540;13.604;2023-08-20T02:58:18;28.97;;;25.93;;
31282;SDS011;17915;52.540;13.604;2023-08-20T03:00:43;34.87;;;23.67;;
31282;SDS011;17915;52.540;13.604;2023-08-20T03:03:10;29.67;;;24.38;;
31282;SDS011;17915;52.540;13.604;2023-08-20T03:05:35;27.35;;;24.90;;
31282;SDS011;17915;52.540;13.604;2023-08-20T03:08:01;29.60;;;26.03;;
31282;SDS011;17915;52.540;13.604;2023-08-20T03:10:28;28.02;;;25.13;;
31282;SDS011;17915;52.540;13.604;2023-08-20T03:12:54;28.83;;;25.83;;
31282;SDS011;17915;52.540;13.604;2023-08-20T03:15:20;30.13;;;26.23;;
31282;SDS011;17915;52.540;13.604;2023-08-20T03:17:45;27.47;;;24.87;;
31282;SDS011;17915;52.540;13.604;2023-08-20T03:20:11;30.63;;;26.87;;
31282;SDS011;17915;52.540;13.604;2023-08-20T03:22:36;27.60;;;24.33;;
31282;SDS011;17915;52.540;13.604;2023-08-20T03:25:02;29.58;;;25.58;;
31282;SDS011;17915;52.540;13.604;2023-08-20T03:27:28;30.23;;;26.17;;
31282;SDS011;17915;52.540;13.604;2023-08-20T03:29:53;28.70;;;24.17;;
31282;SDS011;17915;52.540;13.604;2023-08-20T03:32:19;28.87;;;25.97;;
31282;SDS011;17915;52.540;13.604;2023-08-20T03:34:44;28.27;;;25.37;;
31282;SDS011;17915;52.540;13.604;2023-08-20T03:37:09;30.50;;;26.37;;
31282;SDS011;17915;52.540;13.604;2023-08-20T03:39:35;30.53;;;26.70;;
31282;SDS011;17915;52.540;13.604;2023-08-20T03:42:00;34.87;;;26.03;;
31282;SDS011;17915;52.540;13.604;2023-08-20T03:44:25;33.00;;;26.03;;
31282;SDS011;17915;52.540;13.604;2023-08-20T03:46:51;28.30;;;25.43;;
31282;SDS011;17915;52.540;13.604;2023-08-20T03:49:16;28.63;;;25.63;;
31282;SDS011;17915;52.540;13.604;2023-08-20T03:51:42;35.23;;;26.80;;
31282;SDS011;17915;52.540;13.604;2023-08-20T03:54:07;28.70;;;25.60;;
31282;SDS011;17915;52.540;13.604;2023-08-20T03:56:33;27.67;;;24.90;;
31282;SDS011;17915;52.540;13.604;2023-08-20T03:58:59;37.17;;;26.87;;
31282;SDS011;17915;52.540;13.604;2023-08-20T04:01:24;31.70;;;26.27;;
31282;SDS011;17915;52.540;13.604;2023-08-20T04:03:50;29.60;;;26.33;;
31282;SDS011;17915;52.540;13.604;2023-08-20T04:06:15;30.57;;;27.37;;
31282;SDS011;17915;52.540;13.604;2023-08-20T04:08:40;33.93;;;27.57;;
31282;SDS011;17915;52.540;13.604;2023-08-20T04:11:06;29.37;;;26.43;;
31282;SDS011;17915;52.540;13.604;2023-08-20T04:13:31;33.88;;;28.20;;
31282;SDS011;17915;52.540;13.604;2023-08-20T04:15:57;34.03;;;27.13;;
31282;SDS011;17915;52.540;13.604;2023-08-20T04:18:22;30.05;;;25.60;;
31282;SDS011;17915;52.540;13.604;2023-08-20T04:20:51;30.67;;;27.33;;
31282;SDS011;17915;52.540;13.604;2023-08-20T04:23:17;32.92;;;26.25;;
31282;SDS011;17915;52.540;13.604;2023-08-20T04:25:44;35.22;;;26.55;;
31282;SDS011;17915;52.540;13.604;2023-08-20T04:28:10;34.47;;;25.98;;
31282;SDS011;17915;52.540;13.604;2023-08-20T04:30:36;28.73;;;25.70;;
31282;SDS011;17915;52.540;13.604;2023-08-20T04:33:01;27.25;;;24.25;;
31282;SDS011;17915;52.540;13.604;2023-08-20T04:35:27;29.25;;;26.20;;
31282;SDS011;17915;52.540;13.604;2023-08-20T04:37:52;30.80;;;24.87;;
31282;SDS011;17915;52.540;13.604;2023-08-20T04:40:18;30.10;;;23.73;;
31282;SDS011;17915;52.540;13.604;2023-08-20T04:42:43;27.25;;;21.02;;
31282;SDS011;17915;52.540;13.604;2023-08-20T04:45:09;27.70;;;23.93;;
31282;SDS011;17915;52.540;13.604;2023-08-20T04:47:35;25.05;;;20.85;;
31282;SDS011;17915;52.540;13.604;2023-08-20T04:50:01;23.80;;;21.27;;
31282;SDS011;17915;52.540;13.604;2023-08-20T04:52:26;27.67;;;20.40;;
31282;SDS011;17915;52.540;13.604;2023-08-20T04:54:52;26.60;;;21.33;;
31282;SDS011;17915;52.540;13.604;2023-08-20T04:57:17;23.43;;;21.23;;
31282;SDS011;17915;52.540;13.604;2023-08-20T04:59:42;24.63;;;22.03;;
31282;SDS011;17915;52.540;13.604;2023-08-20T05:02:10;33.92;;;23.08;;
31282;SDS011;17915;52.540;13.604;2023-08-20T05:04:37;30.77;;;23.63;;
31282;SDS011;17915;52.540;13.604;2023-08-20T05:07:02;26.17;;;23.23;;
31282;SDS011;17915;52.540;13.604;2023-08-20T05:09:28;26.92;;;22.63;;
31282;SDS011;17915;52.540;13.604;2023-08-20T05:11:53;30.83;;;23.23;;
31282;SDS011;17915;52.540;13.604;2023-08-20T05:14:19;25.97;;;23.27;;
31282;SDS011;17915;52.540;13.604;2023-08-20T05:16:44;34.20;;;23.77;;
31282;SDS011;17915;52.540;13.604;2023-08-20T05:19:09;26.73;;;22.90;;
31282;SDS011;17915;52.540;13.604;2023-08-20T05:21:35;27.77;;;24.73;;
31282;SDS011;17915;52.540;13.604;2023-08-20T05:24:00;35.10;;;23.83;;
31282;SDS011;17915;52.540;13.604;2023-08-20T05:26:26;27.43;;;24.60;;
31282;SDS011;17915;52.540;13.604;2023-08-20T05:28:51;26.40;;;23.63;;
31282;SDS011;17915;52.540;13.604;2023-08-20T05:31:16;30.37;;;24.10;;
31282;SDS011;17915;52.540;13.604;2023-08-20T05:33:42;35.87;;;23.97;;
31282;SDS011;17915;52.540;13.604;2023-08-20T05:36:07;32.33;;;23.50;;
31282;SDS011;17915;52.540;13.604;2023-08-20T05:38:32;28.03;;;24.27;;
31282;SDS011;17915;52.540;13.604;2023-08-20T05:40:58;27.43;;;24.23;;
31282;SDS011;17915;52.540;13.604;2023-08-20T05:43:23;29.27;;;24.03;;
31282;SDS011;17915;52.540;13.604;2023-08-20T05:45:49;32.13;;;24.47;;
31282;SDS011;17915;52.540;13.604;2023-08-20T05:48:14;27.00;;;23.47;;
31282;SDS011;17915;52.540;13.604;2023-08-20T05:50:39;28.17;;;22.10;;
31282;SDS011;17915;52.540;13.604;2023-08-20T05:53:05;27.13;;;23.67;;
31282;SDS011;17915;52.540;13.604;2023-08-20T05:55:30;27.87;;;24.30;;
31282;SDS011;17915;52.540;13.604;2023-08-20T05:57:55;30.80;;;23.87;;
31282;SDS011;17915;52.540;13.604;2023-08-20T06:00:21;24.47;;;22.03;;
31282;SDS011;17915;52.540;13.604;2023-08-20T06:02:47;23.95;;;21.55;;
31282;SDS011;17915;52.540;13.604;2023-08-20T06:05:12;24.20;;;21.30;;
31282;SDS011;17915;52.540;13.604;2023-08-20T06:07:38;24.75;;;22.30;;
31282;SDS011;17915;52.540;13.604;2023-08-20T06:10:03;24.50;;;20.60;;
31282;SDS011;17915;52.540;13.604;2023-08-20T06:12:29;27.83;;;20.70;;
31282;SDS011;17915;52.540;13.604;2023-08-20T06:14:54;28.93;;;23.13;;
31282;SDS011;17915;52.540;13.604;2023-08-20T06:17:20;22.43;;;20.13;;
31282;SDS011;17915;52.540;13.604;2023-08-20T06:19:45;26.27;;;20.67;;
31282;SDS011;17915;52.540;13.604;2023-08-20T06:22:11;22.93;;;20.53;;
31282;SDS011;17915;52.540;13.604;2023-08-20T06:24:36;29.13;;;20.87;;
31282;SDS011;17915;52.540;13.604;2023-08-20T06:27:02;22.30;;;19.85;;
31282;SDS011;17915;52.540;13.604;2023-08-20T06:29:28;23.73;;;19.50;;
31282;SDS011;17915;52.540;13.604;2023-08-20T06:31:53;28.10;;;18.93;;
31282;SDS011;17915;52.540;13.604;2023-08-20T06:34:18;33.67;;;21.70;;
31282;SDS011;17915;52.540;13.604;2023-08-20T06:36:44;29.33;;;20.90;;
31282;SDS011;17915;52.540;13.604;2023-08-20T06:39:09;26.30;;;21.97;;
31282;SDS011;17915;52.540;13.604;2023-08-20T06:41:35;28.60;;;22.35;;
31282;SDS011;17915;52.540;13.604;2023-08-20T06:44:01;30.07;;;22.10;;
31282;SDS011;17915;52.540;13.604;2023-08-20T06:48:52;27.02;;;22.13;;
31282;SDS011;17915;52.540;13.604;2023-08-20T06:51:21;25.97;;;21.40;;
31282;SDS011;17915;52.540;13.604;2023-08-20T06:53:47;23.90;;;20.35;;
31282;SDS011;17915;52.540;13.604;2023-08-20T06:56:12;32.72;;;21.38;;
31282;SDS011;17915;52.540;13.604;2023-08-20T06:58:39;23.63;;;20.13;;
31282;SDS011;17915;52.540;13.604;2023-08-20T07:01:05;22.40;;;20.10;;
31282;SDS011;17915;52.540;13.604;2023-08-20T07:03:37;22.05;;;18.75;;
31282;SDS011;17915;52.540;13.604;2023-08-20T07:06:07;21.95;;;19.63;;
31282;SDS011;17915;52.540;13.604;2023-08-20T07:08:39;21.23;;;18.95;;
31282;SDS011;17915;52.540;13.604;2023-08-20T07:11:05;22.33;;;19.02;;
31282;SDS011;17915;52.540;13.604;2023-08-20T07:13:31;26.52;;;19.90;;
31282;SDS011;17915;52.540;13.604;2023-08-20T07:15:56;20.03;;;17.97;;
31282;SDS011;17915;52.540;13.604;2023-08-20T07:18:22;19.07;;;17.37;;
31282;SDS011;17915;52.540;13.604;2023-08-20T07:20:47;26.23;;;18.43;;
31282;SDS011;17915;52.540;13.604;2023-08-20T07:23:12;21.60;;;18.33;;
31282;SDS011;17915;52.540;13.604;2023-08-20T07:25:39;27.23;;;18.23;;
31282;SDS011;17915;52.540;13.604;2023-08-20T07:28:05;24.20;;;18.67;;
31282;SDS011;17915;52.540;13.604;2023-08-20T07:30:31;20.52;;;18.65;;
31282;SDS011;17915;52.540;13.604;2023-08-20T07:32:57;21.13;;;17.25;;
31282;SDS011;17915;52.540;13.604;2023-08-20T07:35:22;20.80;;;18.67;;
31282;SDS011;17915;52.540;13.604;2023-08-20T07:37:48;22.17;;;17.80;;
31282;SDS011;17915;52.540;13.604;2023-08-20T07:40:13;21.73;;;19.37;;
31282;SDS011;17915;52.540;13.604;2023-08-20T07:42:42;20.27;;;18.37;;
31282;SDS011;17915;52.540;13.604;2023-08-20T07:45:08;21.23;;;19.02;;
31282;SDS011;17915;52.540;13.604;2023-08-20T07:50:03;22.40;;;19.45;;
31282;SDS011;17915;52.540;13.604;2023-08-20T07:52:29;19.52;;;17.52;;
31282;SDS011;17915;52.540;13.604;2023-08-20T07:54:55;20.80;;;18.05;;
31282;SDS011;17915;52.540;13.604;2023-08-20T07:57:20;21.23;;;16.67;;
31282;SDS011;17915;52.540;13.604;2023-08-20T07:59:46;17.80;;;16.02;;
31282;SDS011;17915;52.540;13.604;2023-08-20T08:02:12;22.63;;;16.73;;
31282;SDS011;17915;52.540;13.604;2023-08-20T08:04:37;18.00;;;16.20;;
31282;SDS011;17915;52.540;13.604;2023-08-20T08:07:03;17.97;;;16.27;;
31282;SDS011;17915;52.540;13.604;2023-08-20T08:09:31;20.50;;;17.88;;
31282;SDS011;17915;52.540;13.604;2023-08-20T08:11:57;18.35;;;16.67;;
31282;SDS011;17915;52.540;13.604;2023-08-20T08:14:23;19.92;;;17.80;;
31282;SDS011;17915;52.540;13.604;2023-08-20T08:16:49;22.08;;;18.95;;
31282;SDS011;17915;52.540;13.604;2023-08-20T08:19:15;26.85;;;19.45;;
31282;SDS011;17915;52.540;13.604;2023-08-20T08:21:41;23.33;;;16.77;;
31282;SDS011;17915;52.540;13.604;2023-08-20T08:24:07;20.90;;;17.40;;
31282;SDS011;17915;52.540;13.604;2023-08-20T08:26:33;20.20;;;18.03;;
31282;SDS011;17915;52.540;13.604;2023-08-20T08:28:59;22.52;;;19.40;;
31282;SDS011;17915;52.540;13.604;2023-08-20T08:31:25;20.13;;;17.73;;
31282;SDS011;17915;52.540;13.604;2023-08-20T08:33:50;18.90;;;16.67;;
31282;SDS011;17915;52.540;13.604;2023-08-20T08:36:16;20.43;;;17.83;;
31282;SDS011;17915;52.540;13.604;2023-08-20T08:38:42;20.52;;;18.23;;
31282;SDS011;17915;52.540;13.604;2023-08-20T08:41:09;21.40;;;17.02;;
31282;SDS011;17915;52.540;13.604;2023-08-20T08:43:37;23.75;;;21.00;;
31282;SDS011;17915;52.540;13.604;2023-08-20T08:48:30;24.35;;;20.20;;
31282;SDS011;17915;52.540;13.604;2023-08-20T08:50:55;23.88;;;19.50;;
31282;SDS011;17915;52.540;13.604;2023-08-20T08:53:21;19.93;;;17.73;;
31282;SDS011;17915;52.540;13.604;2023-08-20T08:55:48;19.80;;;17.70;;
31282;SDS011;17915;52.540;13.604;2023-08-20T08:58:14;22.53;;;19.43;;
31282;SDS011;17915;52.540;13.604;2023-08-20T09:00:40;19.50;;;17.48;;
31282;SDS011;17915;52.540;13.604;2023-08-20T09:03:06;20.20;;;18.10;;
31282;SDS011;17915;52.540;13.604;2023-08-20T09:05:31;21.63;;;18.70;;
31282;SDS011;17915;52.540;13.604;2023-08-20T09:07:56;19.60;;;17.10;;
31282;SDS011;17915;52.540;13.604;2023-08-20T09:10:25;22.58;;;17.48;;
31282;SDS011;17915;52.540;13.604;2023-08-20T09:12:51;19.27;;;17.17;;
31282;SDS011;17915;52.540;13.604;2023-08-20T09:15:19;24.50;;;19.10;;
31282;SDS011;17915;52.540;13.604;2023-08-20T09:17:44;23.00;;;17.67;;
31282;SDS011;17915;52.540;13.604;2023-08-20T09:20:11;22.65;;;17.38;;
31282;SDS011;17915;52.540;13.604;2023-08-20T09:22:36;18.77;;;16.77;;
31282;SDS011;17915;52.540;13.604;2023-08-20T09:25:02;19.00;;;16.83;;
31282;SDS011;17915;52.540;13.604;2023-08-20T09:27:28;19.88;;;17.88;;
31282;SDS011;17915;52.540;13.604;2023-08-20T09:29:54;18.43;;;16.50;;
31282;SDS011;17915;52.540;13.604;2023-08-20T09:32:21;18.27;;;16.48;;
31282;SDS011;17915;52.540;13.604;2023-08-20T09:34:48;17.95;;;16.17;;
31282;SDS011;17915;52.540;13.604;2023-08-20T09:37:15;17.75;;;16.00;;
31282;SDS011;17915;52.540;13.604;2023-08-20T09:39:42;22.08;;;16.98;;
31282;SDS011;17915;52.540;13.604;2023-08-20T09:42:10;22.65;;;16.67;;
31282;SDS011;17915;52.540;13.604;2023-08-20T09:44:37;20.98;;;18.77;;
31282;SDS011;17915;52.540;13.604;2023-08-20T09:47:06;17.27;;;15.65;;
31282;SDS011;17915;52.540;13.604;2023-08-20T09:49:45;15.38;;;13.85;;
31282;SDS011;17915;52.540;13.604;2023-08-20T09:52:12;21.30;;;17.30;;
31282;SDS011;17915;52.540;13.604;2023-08-20T09:54:58;16.38;;;14.73;;
31282;SDS011;17915;52.540;13.604;2023-08-20T09:57:34;14.82;;;13.60;;
31282;SDS011;17915;52.540;13.604;2023-08-20T10:00:01;17.20;;;15.50;;
31282;SDS011;17915;52.540;13.604;2023-08-20T10:02:28;17.83;;;15.30;;
31282;SDS011;17915;52.540;13.604;2023-08-20T10:04:54;16.48;;;14.85;;
31282;SDS011;17915;52.540;13.604;2023-08-20T10:07:19;21.98;;;15.60;;
31282;SDS011;17915;52.540;13.604;2023-08-20T10:09:47;20.70;;;16.60;;
31282;SDS011;17915;52.540;13.604;2023-08-20T10:12:15;16.02;;;14.43;;
31282;SDS011;17915;52.540;13.604;2023-08-20T10:14:40;16.73;;;15.13;;
31282;SDS011;17915;52.540;13.604;2023-08-20T10:17:08;16.90;;;15.45;;
31282;SDS011;17915;52.540;13.604;2023-08-20T10:19:37;19.83;;;15.00;;
31282;SDS011;17915;52.540;13.604;2023-08-20T10:22:03;16.23;;;13.13;;
31282;SDS011;17915;52.540;13.604;2023-08-20T10:24:44;16.58;;;14.07;;
31282;SDS011;17915;52.540;13.604;2023-08-20T10:27:12;18.48;;;14.55;;
31282;SDS011;17915;52.540;13.604;2023-08-20T10:29:39;16.37;;;14.97;;
31282;SDS011;17915;52.540;13.604;2023-08-20T10:32:10;14.45;;;13.27;;
31282;SDS011;17915;52.540;13.604;2023-08-20T10:34:37;16.88;;;15.10;;
31282;SDS011;17915;52.540;13.604;2023-08-20T10:37:10;13.77;;;12.57;;
31282;SDS011;17915;52.540;13.604;2023-08-20T10:39:37;13.25;;;11.95;;
31282;SDS011;17915;52.540;13.604;2023-08-20T10:42:09;12.32;;;11.07;;
31282;SDS011;17915;52.540;13.604;2023-08-20T10:47:35;11.15;;;10.15;;
31282;SDS011;17915;52.540;13.604;2023-08-20T10:50:01;10.38;;;9.15;;
31282;SDS011;17915;52.540;13.604;2023-08-20T10:52:27;11.85;;;10.85;;
31282;SDS011;17915;52.540;13.604;2023-08-20T10:54:52;11.95;;;9.85;;
31282;SDS011;17915;52.540;13.604;2023-08-20T10:57:18;15.30;;;10.40;;
31282;SDS011;17915;52.540;13.604;2023-08-20T10:59:55;10.82;;;9.93;;
31282;SDS011;17915;52.540;13.604;2023-08-20T11:02:23;11.60;;;8.98;;
31282;SDS011;17915;52.540;13.604;2023-08-20T11:04:49;13.80;;;9.25;;
31282;SDS011;17915;52.540;13.604;2023-08-20T11:07:17;9.00;;;8.20;;
31282;SDS011;17915;52.540;13.604;2023-08-20T11:09:42;8.82;;;8.13;;
31282;SDS011;17915;52.540;13.604;2023-08-20T11:12:09;8.15;;;7.47;;
31282;SDS011;17915;52.540;13.604;2023-08-20T11:14:35;10.38;;;6.63;;
31282;SDS011;17915;52.540;13.604;2023-08-20T11:17:00;6.70;;;5.93;;
31282;SDS011;17915;52.540;13.604;2023-08-20T11:19:26;8.48;;;7.05;;
31282;SDS011;17915;52.540;13.604;2023-08-20T11:21:51;6.10;;;5.60;;
31282;SDS011;17915;52.540;13.604;2023-08-20T11:24:17;7.07;;;6.30;;
31282;SDS011;17915;52.540;13.604;2023-08-20T11:26:43;7.93;;;6.05;;
31282;SDS011;17915;52.540;13.604;2023-08-20T11:29:09;5.60;;;5.13;;
31282;SDS011;17915;52.540;13.604;2023-08-20T11:31:38;6.38;;;5.65;;
31282;SDS011;17915;52.540;13.604;2023-08-20T11:34:04;5.68;;;5.18;;
31282;SDS011;17915;52.540;13.604;2023-08-20T11:36:30;6.20;;;5.57;;
31282;SDS011;17915;52.540;13.604;2023-08-20T11:38:56;5.60;;;5.10;;
31282;SDS011;17915;52.540;13.604;2023-08-20T11:41:22;5.57;;;5.20;;
31282;SDS011;17915;52.540;13.604;2023-08-20T11:43:48;6.13;;;5.03;;
31282;SDS011;17915;52.540;13.604;2023-08-20T11:46:15;5.28;;;4.78;;
31282;SDS011;17915;52.540;13.604;2023-08-20T11:51:37;6.40;;;4.40;;
31282;SDS011;17915;52.540;13.604;2023-08-20T11:54:07;5.68;;;5.00;;
31282;SDS011;17915;52.540;13.604;2023-08-20T11:56:33;4.65;;;4.35;;
31282;SDS011;17915;52.540;13.604;2023-08-20T12:01:25;5.05;;;3.78;;
31282;SDS011;17915;52.540;13.604;2023-08-20T12:03:51;4.65;;;3.92;;
31282;SDS011;17915;52.540;13.604;2023-08-20T12:06:17;3.73;;;3.43;;
31282;SDS011;17915;52.540;13.604;2023-08-20T12:08:43;5.03;;;3.80;;
31282;SDS011;17915;52.540;13.604;2023-08-20T12:11:09;11.23;;;3.80;;
31282;SDS011;17915;52.540;13.604;2023-08-20T12:13:34;6.18;;;3.53;;
31282;SDS011;17915;52.540;13.604;2023-08-20T12:16:00;3.50;;;3.20;;
31282;SDS011;17915;52.540;13.604;2023-08-20T12:18:25;4.63;;;3.72;;
31282;SDS011;17915;52.540;13.604;2023-08-20T12:20:50;4.20;;;3.88;;
31282;SDS011;17915;52.540;13.604;2023-08-20T12:23:16;3.63;;;3.38;;
31282;SDS011;17915;52.540;13.604;2023-08-20T12:25:41;6.80;;;4.28;;
31282;SDS011;17915;52.540;13.604;2023-08-20T12:28:07;7.15;;;3.63;;
31282;SDS011;17915;52.540;13.604;2023-08-20T12:30:33;3.95;;;3.35;;
31282;SDS011;17915;52.540;13.604;2023-08-20T12:33:01;4.30;;;3.55;;
31282;SDS011;17915;52.540;13.604;2023-08-20T12:35:28;4.97;;;3.72;;
31282;SDS011;17915;52.540;13.604;2023-08-20T12:37:53;4.28;;;3.40;;
31282;SDS011;17915;52.540;13.604;2023-08-20T12:40:19;3.83;;;3.53;;
31282;SDS011;17915;52.540;13.604;2023-08-20T12:42:44;5.07;;;3.83;;
31282;SDS011;17915;52.540;13.604;2023-08-20T12:45:09;6.15;;;3.20;;
31282;SDS011;17915;52.540;13.604;2023-08-20T12:47:35;3.75;;;3.53;;
31282;SDS011;17915;52.540;13.604;2023-08-20T12:50:01;4.20;;;3.83;;
31282;SDS011;17915;52.540;13.604;2023-08-20T12:52:29;6.20;;;3.13;;
31282;SDS011;17915;52.540;13.604;2023-08-20T12:54:54;4.38;;;3.15;;
31282;SDS011;17915;52.540;13.604;2023-08-20T12:57:20;4.47;;;3.50;;
31282;SDS011;17915;52.540;13.604;2023-08-20T12:59:45;5.28;;;3.75;;
31282;SDS011;17915;52.540;13.604;2023-08-20T13:02:10;4.07;;;3.77;;
31282;SDS011;17915;52.540;13.604;2023-08-20T13:04:36;5.90;;;3.50;;
31282;SDS011;17915;52.540;13.604;2023-08-20T13:07:02;3.67;;;3.42;;
31282;SDS011;17915;52.540;13.604;2023-08-20T13:09:28;6.07;;;3.17;;
31282;SDS011;17915;52.540;13.604;2023-08-20T13:11:54;3.55;;;3.30;;
31282;SDS011;17915;52.540;13.604;2023-08-20T13:14:21;4.72;;;2.90;;
31282;SDS011;17915;52.540;13.604;2023-08-20T13:16:47;6.88;;;3.60;;
31282;SDS011;17915;52.540;13.604;2023-08-20T13:19:13;5.15;;;3.80;;
31282;SDS011;17915;52.540;13.604;2023-08-20T13:21:39;5.60;;;3.72;;
31282;SDS011;17915;52.540;13.604;2023-08-20T13:24:04;3.88;;;3.58;;
31282;SDS011;17915;52.540;13.604;2023-08-20T13:26:31;4.82;;;2.90;;
31282;SDS011;17915;52.540;13.604;2023-08-20T13:28:56;5.10;;;4.03;;
31282;SDS011;17915;52.540;13.604;2023-08-20T13:31:22;3.67;;;3.38;;
31282;SDS011;17915;52.540;13.604;2023-08-20T13:33:47;4.03;;;2.72;;
31282;SDS011;17915;52.540;13.604;2023-08-20T13:36:14;3.15;;;2.88;;
31282;SDS011;17915;52.540;13.604;2023-08-20T13:41:05;3.57;;;3.10;;
31282;SDS011;17915;52.540;13.604;2023-08-20T13:43:31;5.73;;;3.17;;
31282;SDS011;17915;52.540;13.604;2023-08-20T13:45:56;2.90;;;2.70;;
31282;SDS011;17915;52.540;13.604;2023-08-20T13:48:21;4.43;;;3.20;;
31282;SDS011;17915;52.540;13.604;2023-08-20T13:50:47;2.75;;;2.58;;
31282;SDS011;17915;52.540;13.604;2023-08-20T13:53:12;3.70;;;3.08;;
31282;SDS011;17915;52.540;13.604;2023-08-20T13:55:38;3.55;;;3.00;;
31282;SDS011;17915;52.540;13.604;2023-08-20T13:58:03;4.03;;;2.80;;
31282;SDS011;17915;52.540;13.604;2023-08-20T14:00:29;6.05;;;2.60;;
31282;SDS011;17915;52.540;13.604;2023-08-20T14:02:54;4.05;;;2.53;;
31282;SDS011;17915;52.540;13.604;2023-08-20T14:05:19;2.67;;;2.47;;
31282;SDS011;17915;52.540;13.604;2023-08-20T14:07:45;4.78;;;2.58;;
31282;SDS011;17915;52.540;13.604;2023-08-20T14:10:10;3.15;;;2.90;;
31282;SDS011;17915;52.540;13.604;2023-08-20T14:12:36;2.58;;;2.38;;
31282;SDS011;17915;52.540;13.604;2023-08-20T14:15:01;2.60;;;2.03;;
31282;SDS011;17915;52.540;13.604;2023-08-20T14:19:52;6.20;;;2.85;;
31282;SDS011;17915;52.540;13.604;2023-08-20T14:24:43;4.07;;;2.42;;
31282;SDS011;17915;52.540;13.604;2023-08-20T14:29:34;4.10;;;2.20;;
31282;SDS011;17915;52.540;13.604;2023-08-20T14:34:25;3.83;;;3.47;;
31282;SDS011;17915;52.540;13.604;2023-08-20T14:39:15;1.80;;;1.70;;
31282;SDS011;17915;52.540;13.604;2023-08-20T14:41:41;4.50;;;2.13;;
31282;SDS011;17915;52.540;13.604;2023-08-20T14:46:31;4.88;;;2.08;;
31282;SDS011;17915;52.540;13.604;2023-08-20T14:51:22;3.92;;;1.95;;
31282;SDS011;17915;52.540;13.604;2023-08-20T14:53:47;4.03;;;1.95;;